createdAt,value
2023-02-18T00:01:41.228Z,3.10
2023-02-18T00:04:10.403Z,3.00
2023-02-18T00:06:39.061Z,2.78
2023-02-18T00:09:08.978Z,3.00
2023-02-18T00:11:38.735Z,2.92
2023-02-18T00:14:09.085Z,2.75
2023-02-18T00:16:37.179Z,2.60
2023-02-18T00:19:09.517Z,2.53
2023-02-18T00:21:38.139Z,2.47
2023-02-18T00:24:07.975Z,2.15
2023-02-18T00:26:36.761Z,2.30
2023-02-18T00:29:05.642Z,2.75
2023-02-18T00:31:36.317Z,2.75
2023-02-18T00:34:06.943Z,2.78
2023-02-18T00:36:36.644Z,2.20
2023-02-18T00:39:11.072Z,2.20
2023-02-18T00:41:41.372Z,2.13
2023-02-18T00:44:10.027Z,3.13
2023-02-18T00:46:38.694Z,3.15
2023-02-18T00:49:09.521Z,2.25
2023-02-18T00:51:37.808Z,2.92
2023-02-18T00:54:06.121Z,2.13
2023-02-18T00:56:34.373Z,2.72
2023-02-18T00:59:02.675Z,2.42
2023-02-18T01:01:31.600Z,2.60
2023-02-18T01:03:59.818Z,3.58
2023-02-18T01:06:29.465Z,2.97
2023-02-18T01:08:57.833Z,3.60
2023-02-18T01:11:26.100Z,2.55
2023-02-18T01:13:54.288Z,2.47
2023-02-18T01:16:23.116Z,2.38
2023-02-18T01:18:51.299Z,2.95
2023-02-18T01:21:19.504Z,3.03
2023-02-18T01:23:49.379Z,2.67
2023-02-18T01:26:17.499Z,2.08
2023-02-18T01:28:45.741Z,3.55
2023-02-18T01:31:15.838Z,3.40
2023-02-18T01:33:44.744Z,2.95
2023-02-18T01:36:13.465Z,2.45
2023-02-18T01:38:42.122Z,2.38
2023-02-18T01:41:12.190Z,2.97
2023-02-18T01:43:40.685Z,3.15
2023-02-18T01:46:17.976Z,2.78
2023-02-18T01:48:50.958Z,3.17
2023-02-18T01:51:22.982Z,2.47
2023-02-18T01:53:57.289Z,2.63
2023-02-18T01:56:33.717Z,3.30
2023-02-18T01:59:06.838Z,2.47
2023-02-18T02:01:36.026Z,2.33
2023-02-18T02:04:04.466Z,2.72
2023-02-18T02:06:32.980Z,3.08
2023-02-18T02:09:04.886Z,3.13
2023-02-18T02:12:02.352Z,2.22
2023-02-18T02:14:48.648Z,3.13
2023-02-18T02:17:29.162Z,3.65
2023-02-18T02:20:31.167Z,2.22
2023-02-18T02:23:47.177Z,2.40
2023-02-18T02:26:57.181Z,2.25
2023-02-18T02:29:58.944Z,2.50
2023-02-18T02:32:57.487Z,2.45
2023-02-18T02:35:31.288Z,2.13
2023-02-18T02:38:06.648Z,2.40
2023-02-18T02:40:43.892Z,2.70
2023-02-18T02:43:22.167Z,2.40
2023-02-18T02:45:56.932Z,2.80
2023-02-18T02:48:37.046Z,2.17
2023-02-18T02:51:12.384Z,2.13
2023-02-18T02:53:43.591Z,2.42
2023-02-18T02:56:15.870Z,2.60
2023-02-18T02:58:46.172Z,2.40
2023-02-18T03:01:23.083Z,2.00
2023-02-18T03:04:12.832Z,2.53
2023-02-18T03:06:59.030Z,2.85
2023-02-18T03:09:35.168Z,2.25
2023-02-18T03:12:11.169Z,3.03
2023-02-18T03:14:49.203Z,2.15
2023-02-18T03:17:26.122Z,1.95
2023-02-18T03:19:58.355Z,2.20
2023-02-18T03:22:31.830Z,2.53
2023-02-18T03:25:05.146Z,2.45
2023-02-18T03:27:35.861Z,2.53
2023-02-18T03:30:11.773Z,2.58
2023-02-18T03:32:39.984Z,2.25
2023-02-18T03:35:12.508Z,2.03
2023-02-18T03:37:48.968Z,1.83
2023-02-18T03:40:19.116Z,2.22
2023-02-18T03:42:47.473Z,2.08
2023-02-18T03:45:15.599Z,2.75
2023-02-18T03:47:44.012Z,2.13
2023-02-18T03:50:12.237Z,2.17
2023-02-18T03:52:41.682Z,1.95
2023-02-18T03:55:10.512Z,2.17
2023-02-18T03:57:38.960Z,1.90
2023-02-18T04:00:09.395Z,1.75
2023-02-18T04:02:44.083Z,2.38
2023-02-18T04:05:12.309Z,1.80
2023-02-18T04:07:42.087Z,1.98
2023-02-18T04:10:10.994Z,2.28
2023-02-18T04:12:39.172Z,1.73
2023-02-18T04:15:07.870Z,2.35
2023-02-18T04:17:36.185Z,1.77
2023-02-18T04:20:04.789Z,2.00
2023-02-18T04:22:32.858Z,2.50
2023-02-18T04:25:02.444Z,2.15
2023-02-18T04:27:30.493Z,3.15
2023-02-18T04:29:58.850Z,2.45
2023-02-18T04:32:27.331Z,1.90
2023-02-18T04:34:55.463Z,1.95
2023-02-18T04:37:23.747Z,2.85
2023-02-18T04:39:52.236Z,2.22
2023-02-18T04:42:21.659Z,2.05
2023-02-18T04:44:49.841Z,2.90
2023-02-18T04:47:18.353Z,1.98
2023-02-18T04:49:46.449Z,2.10
2023-02-18T04:52:14.601Z,2.65
2023-02-18T04:54:43.047Z,2.50
2023-02-18T04:57:11.605Z,2.00
2023-02-18T04:59:41.408Z,2.08
2023-02-18T05:02:09.693Z,2.78
2023-02-18T05:04:37.810Z,2.05
2023-02-18T05:07:06.025Z,2.65
2023-02-18T05:09:34.303Z,2.70
2023-02-18T05:12:02.385Z,2.53
2023-02-18T05:14:30.817Z,2.15
2023-02-18T05:17:00.453Z,2.83
2023-02-18T05:19:28.609Z,2.30
2023-02-18T05:21:56.986Z,1.80
2023-02-18T05:24:25.419Z,2.88
2023-02-18T05:26:53.543Z,2.28
2023-02-18T05:29:21.809Z,2.40
2023-02-18T05:31:50.343Z,2.10
2023-02-18T05:34:19.763Z,2.03
2023-02-18T05:36:48.146Z,1.88
2023-02-18T05:39:16.596Z,1.95
2023-02-18T05:41:44.601Z,1.77
2023-02-18T05:44:30.228Z,1.90
2023-02-18T05:46:58.696Z,1.90
2023-02-18T05:49:28.789Z,2.40
2023-02-18T05:51:57.498Z,2.00
2023-02-18T05:54:25.924Z,2.63
2023-02-18T05:56:56.770Z,2.63
2023-02-18T05:59:25.832Z,2.15
2023-02-18T06:01:53.965Z,2.65
2023-02-18T06:04:22.324Z,2.55
2023-02-18T06:06:52.051Z,2.40
2023-02-18T06:09:20.199Z,3.15
2023-02-18T06:11:48.453Z,3.10
2023-02-18T06:14:16.939Z,3.88
2023-02-18T06:16:44.954Z,3.92
2023-02-18T06:19:13.245Z,3.47
2023-02-18T06:21:41.511Z,2.85
2023-02-18T06:24:11.133Z,2.67
2023-02-18T06:26:39.680Z,2.63
2023-02-18T06:29:08.215Z,2.75
2023-02-18T06:31:36.442Z,3.20
2023-02-18T06:34:04.575Z,3.58
2023-02-18T06:36:32.998Z,3.45
2023-02-18T06:39:03.407Z,3.05
2023-02-18T06:41:33.633Z,4.47
2023-02-18T06:44:01.794Z,4.28
2023-02-18T06:46:30.129Z,4.85
2023-02-18T06:48:58.651Z,5.00
2023-02-18T06:51:27.145Z,5.25
2023-02-18T06:53:55.476Z,7.05
2023-02-18T06:56:24.070Z,5.60
2023-02-18T06:58:53.498Z,7.70
2023-02-18T07:01:21.809Z,6.95
2023-02-18T07:03:50.486Z,9.15
2023-02-18T07:06:18.693Z,8.43
2023-02-18T07:08:46.947Z,9.73
2023-02-18T07:11:16.576Z,10.38
2023-02-18T07:13:44.772Z,9.68
2023-02-18T07:16:14.426Z,9.18
2023-02-18T07:18:42.912Z,10.63
2023-02-18T07:21:11.040Z,11.57
2023-02-18T07:23:39.302Z,11.45
2023-02-18T07:26:10.944Z,13.30
2023-02-18T07:28:39.559Z,13.15
2023-02-18T07:31:08.449Z,12.20
2023-02-18T07:33:38.395Z,13.55
2023-02-18T07:36:07.892Z,15.93
2023-02-18T07:38:36.290Z,15.15
2023-02-18T07:41:04.941Z,15.75
2023-02-18T07:43:33.035Z,16.90
2023-02-18T07:46:01.376Z,19.85
2023-02-18T07:48:29.803Z,20.42
2023-02-18T07:50:59.289Z,21.33
2023-02-18T07:53:27.603Z,23.73
2023-02-18T07:55:56.054Z,23.55
2023-02-18T07:58:27.004Z,24.77
2023-02-18T08:00:56.766Z,25.55
2023-02-18T08:03:27.703Z,25.50
2023-02-18T08:05:56.572Z,26.05
2023-02-18T08:08:27.976Z,24.98
2023-02-18T08:10:59.683Z,27.38
2023-02-18T08:13:29.518Z,28.57
2023-02-18T08:15:59.289Z,29.75
2023-02-18T08:18:28.278Z,32.33
2023-02-18T08:23:44.242Z,33.92
2023-02-18T08:26:12.954Z,33.95
2023-02-18T08:28:43.602Z,33.25
2023-02-18T08:31:19.947Z,34.03
2023-02-18T08:33:48.983Z,33.47
2023-02-18T08:36:17.072Z,32.63
2023-02-18T08:38:47.035Z,28.10
2023-02-18T08:41:15.729Z,28.98
2023-02-18T08:43:44.215Z,26.83
2023-02-18T08:46:16.173Z,25.05
2023-02-18T08:48:53.490Z,24.35
2023-02-18T08:51:24.231Z,23.33
2023-02-18T08:53:53.633Z,23.90
2023-02-18T08:56:21.661Z,21.45
2023-02-18T08:58:50.256Z,21.13
2023-02-18T09:01:18.481Z,18.85
2023-02-18T09:03:46.548Z,17.48
2023-02-18T09:06:14.934Z,17.63
2023-02-18T09:08:43.137Z,16.05
2023-02-18T09:11:13.579Z,14.02
2023-02-18T09:13:42.302Z,15.05
2023-02-18T09:16:13.963Z,11.93
2023-02-18T09:18:42.759Z,13.55
2023-02-18T09:21:14.091Z,12.40
2023-02-18T09:23:42.855Z,11.73
2023-02-18T09:26:16.285Z,10.82
2023-02-18T09:28:45.017Z,9.60
2023-02-18T09:31:16.204Z,9.85
2023-02-18T09:33:47.304Z,9.75
2023-02-18T09:36:15.915Z,9.80
2023-02-18T09:38:44.057Z,9.55
2023-02-18T09:41:28.172Z,9.95
2023-02-18T09:44:00.523Z,9.15
2023-02-18T09:46:34.358Z,8.73
2023-02-18T09:49:04.895Z,8.52
2023-02-18T09:51:33.591Z,8.35
2023-02-18T09:54:01.941Z,9.10
2023-02-18T09:56:35.834Z,9.40
2023-02-18T09:59:10.472Z,9.38
2023-02-18T10:01:41.168Z,8.65
2023-02-18T10:04:17.327Z,9.32
2023-02-18T10:06:47.673Z,9.05
2023-02-18T10:09:24.893Z,9.23
2023-02-18T10:11:58.230Z,8.82
2023-02-18T10:14:27.723Z,8.33
2023-02-18T10:16:55.957Z,8.75
2023-02-18T10:19:29.211Z,8.60
2023-02-18T10:21:58.042Z,8.77
2023-02-18T10:24:31.316Z,8.68
2023-02-18T10:27:01.748Z,8.80
2023-02-18T10:29:32.442Z,8.80
2023-02-18T10:32:07.012Z,8.73
2023-02-18T10:34:42.475Z,9.63
2023-02-18T10:37:35.686Z,9.48
2023-02-18T10:40:12.258Z,8.70
2023-02-18T10:42:55.446Z,9.13
2023-02-18T10:45:34.859Z,8.77
2023-02-18T10:48:25.617Z,8.15
2023-02-18T10:50:54.328Z,8.30
2023-02-18T10:53:30.797Z,8.52
2023-02-18T10:55:59.370Z,8.80
2023-02-18T10:58:32.982Z,7.40
2023-02-18T11:01:05.158Z,7.75
2023-02-18T11:03:45.293Z,7.35
2023-02-18T11:06:24.166Z,7.88
2023-02-18T11:08:54.711Z,7.28
2023-02-18T11:11:26.433Z,6.65
2023-02-18T11:13:57.856Z,5.95
2023-02-18T11:16:38.808Z,5.45
2023-02-18T11:19:07.005Z,5.55
2023-02-18T11:21:38.073Z,5.20
2023-02-18T11:24:10.797Z,4.70
2023-02-18T11:26:42.628Z,4.38
2023-02-18T11:29:21.604Z,4.35
2023-02-18T11:31:52.299Z,4.50
2023-02-18T11:34:24.204Z,4.20
2023-02-18T11:36:53.198Z,3.65
2023-02-18T11:39:24.595Z,3.65
2023-02-18T11:41:57.780Z,3.28
2023-02-18T11:44:30.668Z,3.05
2023-02-18T11:47:02.445Z,3.10
2023-02-18T11:49:32.251Z,3.40
2023-02-18T11:52:20.333Z,3.08
2023-02-18T11:55:02.683Z,2.90
2023-02-18T11:57:31.779Z,3.28
2023-02-18T12:00:01.986Z,3.47
2023-02-18T12:02:40.143Z,2.95
2023-02-18T12:05:15.679Z,3.75
2023-02-18T12:07:47.099Z,3.60
2023-02-18T12:10:22.428Z,3.70
2023-02-18T12:12:55.781Z,3.65
2023-02-18T12:15:30.364Z,3.92
2023-02-18T12:18:16.388Z,4.88
2023-02-18T12:21:16.742Z,4.47
2023-02-18T12:23:57.040Z,5.25
2023-02-18T12:26:29.814Z,5.18
2023-02-18T12:29:10.374Z,4.65
2023-02-18T12:31:55.638Z,4.90
2023-02-18T12:34:40.359Z,5.82
2023-02-18T12:40:02.105Z,5.68
2023-02-18T12:42:46.003Z,6.40
2023-02-18T12:45:49.630Z,6.10
2023-02-18T12:48:39.456Z,6.30
2023-02-18T12:51:25.663Z,5.45
2023-02-18T12:54:24.364Z,5.82
2023-02-18T12:57:08.548Z,5.50
2023-02-18T12:59:58.324Z,5.57
2023-02-18T13:02:50.563Z,5.60
2023-02-18T13:05:32.158Z,5.60
2023-02-18T13:08:11.596Z,6.50
2023-02-18T13:11:14.531Z,6.25
2023-02-18T13:13:48.706Z,5.75
2023-02-18T13:18:57.653Z,6.07
2023-02-18T13:21:28.138Z,6.82
2023-02-18T13:24:01.253Z,6.43
2023-02-18T13:26:32.082Z,6.75
2023-02-18T13:29:17.355Z,6.35
2023-02-18T13:31:58.470Z,6.75
2023-02-18T13:34:32.461Z,6.32
2023-02-18T13:37:12.082Z,7.15
2023-02-18T13:39:48.676Z,6.25
2023-02-18T13:42:36.698Z,6.90
2023-02-18T13:45:26.603Z,5.57
2023-02-18T13:47:55.597Z,5.68
2023-02-18T13:50:42.039Z,5.15
2023-02-18T13:53:30.416Z,5.22
2023-02-18T13:56:02.634Z,5.18
2023-02-18T13:58:36.608Z,4.80
2023-02-18T14:01:08.442Z,5.32
2023-02-18T14:03:52.481Z,5.13
2023-02-18T14:06:22.832Z,5.07
2023-02-18T14:09:02.947Z,5.70
2023-02-18T14:11:40.560Z,5.32
2023-02-18T14:14:45.197Z,5.38
2023-02-18T14:17:31.992Z,6.05
2023-02-18T14:20:46.677Z,5.30
2023-02-18T14:23:59.365Z,5.23
2023-02-18T14:26:33.092Z,6.43
2023-02-18T14:29:13.025Z,4.57
2023-02-18T14:31:54.428Z,5.75
2023-02-18T14:35:03.310Z,5.70
2023-02-18T14:38:17.077Z,5.75
2023-02-18T14:41:10.274Z,6.50
2023-02-18T14:44:03.292Z,5.15
2023-02-18T14:46:42.096Z,5.78
2023-02-18T14:49:33.265Z,4.35
2023-02-18T14:52:01.900Z,5.22
2023-02-18T14:54:32.242Z,5.68
2023-02-18T14:57:02.945Z,5.60
2023-02-18T14:59:37.214Z,4.47
2023-02-18T15:04:33.570Z,3.88
2023-02-18T15:07:03.507Z,3.72
2023-02-18T15:09:32.773Z,3.58
2023-02-18T15:12:04.495Z,3.88
2023-02-18T15:14:37.377Z,3.58
2023-02-18T15:17:07.368Z,3.50
2023-02-18T15:19:41.179Z,4.05
2023-02-18T15:22:18.125Z,3.42
2023-02-18T15:24:47.114Z,4.45
2023-02-18T15:27:17.746Z,3.10
2023-02-18T15:29:51.350Z,2.92
2023-02-18T15:32:21.418Z,4.32
2023-02-18T15:34:52.801Z,4.22
2023-02-18T15:37:21.004Z,4.22
2023-02-18T15:39:50.040Z,4.15
2023-02-18T15:42:27.199Z,3.20
2023-02-18T15:45:03.367Z,3.75
2023-02-18T15:47:32.293Z,3.25
2023-02-18T15:50:03.512Z,5.43
2023-02-18T15:52:35.119Z,4.05
2023-02-18T15:55:09.049Z,3.45
2023-02-18T15:57:37.994Z,4.03
2023-02-18T16:00:17.279Z,3.38
2023-02-18T16:02:56.492Z,2.95
2023-02-18T16:05:29.175Z,2.92
2023-02-18T16:08:01.507Z,2.53
2023-02-18T16:10:47.387Z,2.80
2023-02-18T16:13:17.754Z,3.00
2023-02-18T16:15:49.350Z,2.50
2023-02-18T16:18:31.134Z,2.10
2023-02-18T16:21:03.381Z,2.85
2023-02-18T16:23:36.043Z,2.60
2023-02-18T16:26:22.097Z,2.35
2023-02-18T16:28:53.888Z,2.63
2023-02-18T16:31:23.706Z,2.92
2023-02-18T16:33:52.057Z,2.85
2023-02-18T16:36:22.817Z,3.10
2023-02-18T16:38:50.893Z,4.10
2023-02-18T16:41:19.734Z,3.72
2023-02-18T16:43:48.284Z,4.72
2023-02-18T16:46:18.854Z,4.72
2023-02-18T16:48:51.709Z,5.60
2023-02-18T16:51:24.376Z,5.43
2023-02-18T16:53:52.968Z,7.20
2023-02-18T16:56:23.200Z,6.35
2023-02-18T16:58:52.115Z,6.80
2023-02-18T17:01:26.344Z,7.15
2023-02-18T17:03:56.682Z,6.35
2023-02-18T17:06:25.037Z,5.07
2023-02-18T17:08:53.603Z,4.20
2023-02-18T17:11:23.752Z,3.90
2023-02-18T17:13:52.926Z,3.78
2023-02-18T17:16:22.935Z,3.22
2023-02-18T17:18:51.341Z,3.67
2023-02-18T17:21:23.612Z,2.85
2023-02-18T17:23:52.621Z,3.28
2023-02-18T17:26:22.989Z,3.67
2023-02-18T17:28:52.594Z,3.30
2023-02-18T17:31:24.427Z,2.85
2023-02-18T17:33:54.377Z,3.38
2023-02-18T17:36:24.133Z,3.75
2023-02-18T17:38:52.581Z,2.97
2023-02-18T17:41:20.987Z,3.10
2023-02-18T17:43:49.345Z,3.42
2023-02-18T17:46:19.909Z,4.03
2023-02-18T17:48:48.560Z,4.88
2023-02-18T17:51:26.289Z,4.43
2023-02-18T17:53:54.747Z,5.13
2023-02-18T17:56:22.915Z,5.13
2023-02-18T17:58:51.390Z,5.78
2023-02-18T18:01:21.030Z,5.63
2023-02-18T18:03:49.477Z,5.78
2023-02-18T18:06:19.218Z,5.80
2023-02-18T18:08:49.455Z,5.38
2023-02-18T18:11:20.080Z,5.80
2023-02-18T18:13:48.489Z,5.63
2023-02-18T18:16:18.668Z,5.43
2023-02-18T18:18:46.847Z,5.53
2023-02-18T18:21:21.859Z,6.05
2023-02-18T18:23:51.875Z,6.15
2023-02-18T18:26:20.084Z,5.55
2023-02-18T18:28:48.549Z,6.10
2023-02-18T18:31:19.702Z,6.45
2023-02-18T18:33:50.515Z,6.13
2023-02-18T18:36:20.535Z,6.28
2023-02-18T18:38:49.105Z,8.90
2023-02-18T18:41:20.629Z,7.88
2023-02-18T18:43:49.356Z,6.45
2023-02-18T18:46:17.665Z,7.20
2023-02-18T18:48:45.986Z,7.50
2023-02-18T18:51:16.962Z,8.18
2023-02-18T18:53:45.415Z,8.43
2023-02-18T18:56:14.586Z,9.30
2023-02-18T18:58:44.247Z,11.10
2023-02-18T19:01:17.498Z,9.65
2023-02-18T19:03:46.287Z,8.73
2023-02-18T19:06:16.158Z,6.78
2023-02-18T19:08:45.216Z,5.00
2023-02-18T19:11:14.064Z,5.25
2023-02-18T19:13:42.246Z,5.07
2023-02-18T19:16:19.178Z,5.57
2023-02-18T19:18:47.918Z,4.90
2023-02-18T19:21:16.724Z,4.10
2023-02-18T19:23:45.004Z,4.18
2023-02-18T19:26:15.801Z,3.90
2023-02-18T19:28:44.515Z,3.55
2023-02-18T19:31:14.390Z,4.03
2023-02-18T19:33:45.564Z,3.88
2023-02-18T19:36:14.728Z,3.92
2023-02-18T19:38:42.951Z,3.90
2023-02-18T19:41:12.825Z,3.83
2023-02-18T19:43:41.750Z,10.85
2023-02-18T19:46:10.782Z,5.22
2023-02-18T19:48:40.642Z,5.55
2023-02-18T19:51:09.925Z,5.05
2023-02-18T19:53:38.871Z,5.53
2023-02-18T19:56:07.952Z,5.60
2023-02-18T19:58:36.432Z,6.47
2023-02-18T20:01:04.945Z,6.65
2023-02-18T20:03:33.189Z,7.75
2023-02-18T20:06:02.656Z,9.25
2023-02-18T20:08:31.223Z,9.80
2023-02-18T20:10:59.705Z,11.02
2023-02-18T20:13:28.372Z,10.00
2023-02-18T20:15:56.643Z,8.00
2023-02-18T20:18:25.133Z,7.45
2023-02-18T20:20:53.267Z,5.70
2023-02-18T20:23:22.947Z,5.43
2023-02-18T20:25:51.186Z,4.22
2023-02-18T20:28:19.489Z,4.10
2023-02-18T20:30:47.888Z,4.13
2023-02-18T20:33:15.956Z,4.53
2023-02-18T20:35:44.409Z,4.25
2023-02-18T20:38:12.494Z,3.63
2023-02-18T20:40:41.930Z,4.00
2023-02-18T20:43:10.314Z,4.30
2023-02-18T20:45:38.406Z,4.35
2023-02-18T20:48:06.913Z,4.05
2023-02-18T20:50:35.077Z,4.70
2023-02-18T20:53:03.078Z,5.13
2023-02-18T20:55:31.564Z,5.18
2023-02-18T20:58:01.033Z,5.70
2023-02-18T21:00:29.209Z,4.97
2023-02-18T21:02:57.546Z,5.30
2023-02-18T21:05:25.861Z,5.78
2023-02-18T21:07:54.204Z,5.55
2023-02-18T21:10:22.364Z,5.68
2023-02-18T21:12:50.513Z,5.65
2023-02-18T21:15:20.161Z,6.70
2023-02-18T21:17:48.298Z,11.05
2023-02-18T21:20:16.670Z,12.43
2023-02-18T21:22:44.729Z,13.02
2023-02-18T21:25:13.935Z,14.73
2023-02-18T21:27:42.314Z,13.27
2023-02-18T21:30:11.374Z,15.02
2023-02-18T21:32:40.844Z,16.63
2023-02-18T21:35:09.143Z,15.50
2023-02-18T21:37:37.443Z,16.75
2023-02-18T21:40:06.378Z,15.98
2023-02-18T21:42:34.666Z,16.70
2023-02-18T21:45:04.473Z,16.65
2023-02-18T21:47:32.602Z,16.42
2023-02-18T21:50:02.530Z,15.40
2023-02-18T21:52:32.367Z,14.18
2023-02-18T21:55:00.588Z,12.38
2023-02-18T21:57:29.084Z,10.02
2023-02-18T21:59:57.220Z,9.52
2023-02-18T22:02:27.169Z,9.32
2023-02-18T22:04:55.534Z,9.25
2023-02-18T22:07:26.703Z,9.00
2023-02-18T22:09:55.000Z,9.38
2023-02-18T22:12:24.282Z,9.38
2023-02-18T22:14:52.663Z,9.15
2023-02-18T22:17:22.140Z,9.57
2023-02-18T22:19:50.494Z,8.90
2023-02-18T22:22:18.913Z,10.63
2023-02-18T22:24:48.665Z,9.60
2023-02-18T22:27:19.857Z,11.00
2023-02-18T22:29:48.492Z,11.32
2023-02-18T22:32:17.712Z,11.57
2023-02-18T22:34:48.948Z,10.98
2023-02-18T22:37:17.383Z,11.38
2023-02-18T22:39:45.609Z,14.75
2023-02-18T22:42:14.989Z,14.43
2023-02-18T22:44:43.308Z,13.45
2023-02-18T22:47:11.395Z,14.65
2023-02-18T22:49:39.896Z,14.38
2023-02-18T22:52:07.952Z,16.30
2023-02-18T22:54:36.128Z,15.68
2023-02-18T22:57:04.368Z,15.15
2023-02-18T22:59:34.069Z,14.48
2023-02-18T23:02:02.349Z,14.20
2023-02-18T23:04:30.506Z,15.00
2023-02-18T23:06:58.673Z,14.20
2023-02-18T23:09:26.945Z,15.20
2023-02-18T23:11:58.097Z,14.98
2023-02-18T23:14:28.204Z,14.95
2023-02-18T23:17:14.581Z,17.25
2023-02-18T23:19:44.852Z,19.60
2023-02-18T23:22:15.855Z,16.98
2023-02-18T23:24:45.790Z,17.88
2023-02-18T23:27:15.119Z,20.10
2023-02-18T23:29:43.573Z,22.55
2023-02-18T23:32:13.430Z,21.58
2023-02-18T23:34:41.568Z,20.42
2023-02-18T23:37:10.111Z,22.15
2023-02-18T23:39:39.839Z,22.02
2023-02-18T23:42:08.275Z,21.02
2023-02-18T23:44:36.618Z,20.58
2023-02-18T23:47:04.781Z,22.08
2023-02-18T23:49:34.600Z,21.05
2023-02-18T23:52:02.709Z,19.25
2023-02-18T23:54:30.880Z,21.27
2023-02-18T23:56:59.028Z,21.98
2023-02-18T23:59:27.633Z,21.70
